Time;durP1;ratioP1;P1;durP2;ratioP2;P2;SDS_P1;SDS_P2;PMS_P1;PMS_P2;Temp;Humidity;BMP_temperature;BMP_pressure;BME280_temperature;BME280_humidity;BME280_pressure;Samples;Min_cycle;Max_cycle;Signal;HPM_P1;HPM_P2
2022/08/22 00:01:56;;;;;;;10.43;2.33;;;17.80;99.90;;;;;;4954502;28;20050;-58
2022/08/22 00:04:46;;;;;;;15.02;1.98;;;17.60;99.90;;;;;;4975886;28;20059;-58
2022/08/22 00:07:38;;;;;;;10.88;2.25;;;17.60;99.90;;;;;;4992019;28;20591;-58
2022/08/22 00:10:18;;;;;;;6.40;2.10;;;17.50;99.90;;;;;;4991922;28;20558;-58
2022/08/22 00:13:11;;;;;;;11.63;2.20;;;17.50;99.90;;;;;;4975487;28;20378;-58
2022/08/22 00:15:42;;;;;;;10.60;2.72;;;17.60;99.90;;;;;;4974489;28;20062;-61
2022/08/22 00:18:31;;;;;;;7.22;2.42;;;17.60;99.90;;;;;;4975397;28;20089;-59
2022/08/22 00:21:14;;;;;;;13.07;2.28;;;17.60;99.90;;;;;;4974643;28;20085;-59
2022/08/22 00:24:27;;;;;;;11.10;2.25;;;17.50;99.90;;;;;;4639408;28;10000080;-59
2022/08/22 00:27:00;;;;;;;9.40;2.45;;;17.50;99.90;;;;;;4984182;28;20062;-59
2022/08/22 00:29:42;;;;;;;12.68;1.85;;;17.50;99.90;;;;;;4991706;28;20038;-59
2022/08/22 00:32:13;;;;;;;10.23;2.58;;;17.50;99.90;;;;;;4992020;28;20046;-59
2022/08/22 00:34:56;;;;;;;6.82;3.28;;;17.40;99.90;;;;;;4974214;28;20050;-59
2022/08/22 00:37:29;;;;;;;9.25;2.80;;;17.30;99.90;;;;;;4975281;28;20116;-58
2022/08/22 00:40:35;;;;;;;13.60;3.00;;;17.20;99.90;;;;;;4974176;28;20050;-59
2022/08/22 00:43:26;;;;;;;8.90;2.17;;;17.20;99.90;;;;;;4902899;29;20056;-60
2022/08/22 00:45:58;;;;;;;10.68;3.15;;;17.30;99.90;;;;;;4911752;29;20495;-60
2022/08/22 00:48:34;;;;;;;5.65;2.17;;;17.30;99.90;;;;;;4965058;28;20101;-60
2022/08/22 00:51:19;;;;;;;10.40;3.00;;;17.30;99.90;;;;;;4966681;28;20042;-60
2022/08/22 00:53:52;;;;;;;17.08;3.78;;;17.20;99.90;;;;;;4991009;28;20312;-59
2022/08/22 00:56:51;;;;;;;12.88;2.63;;;17.10;99.90;;;;;;4991019;28;20141;-60
2022/08/22 00:59:28;;;;;;;15.23;2.53;;;17.10;99.90;;;;;;4973879;28;20082;-59
2022/08/22 01:01:58;;;;;;;11.95;2.33;;;17.20;99.90;;;;;;4973279;28;20116;-58
2022/08/22 01:04:33;;;;;;;8.73;2.17;;;17.10;99.90;;;;;;4990912;28;20133;-58
2022/08/22 01:07:21;;;;;;;8.02;2.53;;;17.20;99.90;;;;;;4990836;28;20085;-59
2022/08/22 01:10:01;;;;;;;10.13;2.50;;;17.20;99.90;;;;;;4975071;28;20501;-59
2022/08/22 01:12:46;;;;;;;8.27;2.53;;;17.20;99.90;;;;;;4973205;28;20046;-57
2022/08/22 01:15:18;;;;;;;9.73;2.22;;;17.20;99.90;;;;;;4983439;28;20089;-58
2022/08/22 01:18:09;;;;;;;10.18;2.78;;;17.20;99.90;;;;;;4990460;28;20137;-59
2022/08/22 01:21:14;;;;;;;9.32;2.67;;;17.10;99.90;;;;;;4985127;28;20100;-59
2022/08/22 01:24:04;;;;;;;6.93;2.00;;;17.10;99.90;;;;;;4987757;28;20042;-59
2022/08/22 01:26:53;;;;;;;13.80;2.15;;;16.90;99.90;;;;;;4990313;28;20073;-59
2022/08/22 01:29:59;;;;;;;9.95;3.47;;;16.80;99.90;;;;;;4990292;28;20077;-60
2022/08/22 01:33:02;;;;;;;7.75;2.28;;;16.90;99.90;;;;;;4981621;28;20081;-59
2022/08/22 01:35:47;;;;;;;11.10;2.55;;;16.90;99.90;;;;;;4975617;28;20074;-59
2022/08/22 01:38:26;;;;;;;9.90;2.72;;;16.90;99.90;;;;;;4990163;28;20243;-62
2022/08/22 01:41:15;;;;;;;10.63;3.53;;;16.90;99.90;;;;;;4990395;28;20133;-60
2022/08/22 01:44:17;;;;;;;9.80;2.00;;;16.80;99.90;;;;;;4990409;28;20078;-59
2022/08/22 01:46:49;;;;;;;10.35;1.98;;;16.70;99.90;;;;;;4986616;28;20074;-59
2022/08/22 01:49:27;;;;;;;10.70;2.53;;;16.70;99.90;;;;;;4989279;28;20054;-60
2022/08/22 01:52:18;;;;;;;6.97;2.40;;;16.60;99.90;;;;;;4972745;28;20042;-58
2022/08/22 01:55:13;;;;;;;11.93;3.97;;;16.50;99.90;;;;;;4989875;28;20137;-59
2022/08/22 01:57:56;;;;;;;;;;;16.50;99.90;;;;;;4972669;28;20061;-59
2022/08/22 02:00:25;;;;;;;9.88;2.67;;;16.50;99.90;;;;;;4979052;28;20020;-58
2022/08/22 02:03:07;;;;;;;8.77;2.33;;;16.60;99.90;;;;;;4970550;28;20323;-59
2022/08/22 02:06:07;;;;;;;13.65;2.70;;;16.60;99.90;;;;;;4989785;28;20493;-58
2022/08/22 02:08:40;;;;;;;8.15;2.53;;;16.60;99.90;;;;;;4981161;28;20520;-59
2022/08/22 02:11:12;;;;;;;22.83;4.25;;;16.50;99.90;;;;;;4989936;28;20074;-58
2022/08/22 02:14:02;;;;;;;13.20;2.85;;;16.50;99.90;;;;;;4972519;28;20128;-58
2022/08/22 02:16:32;;;;;;;8.80;2.10;;;16.50;99.90;;;;;;4972154;28;20323;-60
2022/08/22 02:19:14;;;;;;;8.18;2.38;;;16.50;99.90;;;;;;4972027;28;20513;-59
2022/08/22 02:21:58;;;;;;;5.53;1.77;;;16.50;99.90;;;;;;4989467;28;20082;-57
2022/08/22 02:24:52;;;;;;;14.52;2.92;;;16.50;99.90;;;;;;4972037;28;20101;-59
2022/08/22 02:27:34;;;;;;;11.75;2.95;;;16.50;99.90;;;;;;4972955;28;20108;-59
2022/08/22 02:30:07;;;;;;;5.47;2.40;;;16.40;99.90;;;;;;4973486;28;20117;-60
2022/08/22 02:32:39;;;;;;;10.15;2.67;;;16.30;99.90;;;;;;4971904;28;20272;-60
2022/08/22 02:35:13;;;;;;;12.25;3.17;;;16.30;99.90;;;;;;4972116;28;20142;-59
2022/08/22 02:37:45;;;;;;;;;;;16.30;99.90;;;;;;4989372;28;20053;-60
2022/08/22 02:40:16;;;;;;;8.07;2.38;;;16.30;99.90;;;;;;4988966;28;20280;-58
2022/08/22 02:43:02;;;;;;;6.57;1.95;;;16.30;99.90;;;;;;4972082;28;20046;-59
2022/08/22 02:45:37;;;;;;;;;;;16.30;99.90;;;;;;4972037;28;20185;-58
2022/08/22 02:48:14;;;;;;;4.93;1.85;;;16.40;99.90;;;;;;4988881;28;20539;-59
2022/08/22 02:50:58;;;;;;;8.70;3.03;;;16.40;99.90;;;;;;4988947;28;20050;-59
2022/08/22 02:53:37;;;;;;;6.45;2.38;;;16.30;99.90;;;;;;4971830;28;20046;-59
2022/08/22 02:56:15;;;;;;;5.68;2.40;;;16.20;99.90;;;;;;4988492;28;20046;-58
2022/08/22 02:58:45;;;;;;;9.05;2.33;;;16.10;99.90;;;;;;4964389;28;20077;-59
2022/08/22 03:01:28;;;;;;;4.60;1.90;;;16.10;99.90;;;;;;4971749;28;20083;-59
2022/08/22 03:04:24;;;;;;;5.77;2.10;;;16.10;99.90;;;;;;4981901;28;20524;-60
2022/08/22 03:06:57;;;;;;;6.55;1.98;;;16.10;99.90;;;;;;4971716;28;20300;-58
2022/08/22 03:09:51;;;;;;;6.35;1.55;;;16.10;99.90;;;;;;4971434;28;20042;-57
2022/08/22 03:12:21;;;;;;;7.03;1.90;;;16.10;99.90;;;;;;4953302;28;20078;-58
2022/08/22 03:14:57;;;;;;;9.40;2.17;;;16.20;99.90;;;;;;4988033;28;20133;-58
2022/08/22 03:17:32;;;;;;;7.05;2.08;;;16.20;99.90;;;;;;4987523;28;20051;-58
2022/08/22 03:20:37;;;;;;;5.65;1.90;;;16.10;99.90;;;;;;4971437;28;20101;-59
2022/08/22 03:23:19;;;;;;;7.70;2.00;;;16.10;99.90;;;;;;4988615;28;20130;-58
2022/08/22 03:25:52;;;;;;;11.10;2.03;;;16.10;99.90;;;;;;4969214;28;20074;-58
2022/08/22 03:28:57;;;;;;;5.25;1.98;;;16.10;99.90;;;;;;4971684;28;20047;-58
2022/08/22 03:31:26;;;;;;;6.75;1.55;;;16.10;99.90;;;;;;4958304;28;20073;-58
2022/08/22 03:34:15;;;;;;;8.80;2.10;;;16.10;99.90;;;;;;4971067;28;20066;-58
2022/08/22 03:37:00;;;;;;;8.52;2.15;;;16.00;99.90;;;;;;4980599;28;20580;-59
2022/08/22 03:39:49;;;;;;;14.27;3.13;;;16.00;99.90;;;;;;4971494;28;20062;-60
2022/08/22 03:42:41;;;;;;;8.25;2.78;;;16.00;99.90;;;;;;4988037;28;20046;-58
2022/08/22 03:45:27;;;;;;;4.65;1.85;;;16.00;99.90;;;;;;4981300;28;20498;-58
2022/08/22 03:48:23;;;;;;;8.90;2.00;;;16.00;99.90;;;;;;4986198;28;20081;-58
2022/08/22 03:50:54;;;;;;;9.00;2.28;;;15.90;99.90;;;;;;4983308;28;20058;-59
2022/08/22 03:53:55;;;;;;;5.95;2.25;;;15.80;99.90;;;;;;4970662;28;20074;-59
2022/08/22 03:56:28;;;;;;;8.40;2.15;;;15.80;99.90;;;;;;4972707;28;20073;-59
2022/08/22 03:59:19;;;;;;;6.28;1.85;;;15.80;99.90;;;;;;4988321;28;20070;-59
2022/08/22 04:01:56;;;;;;;13.00;3.75;;;15.80;99.90;;;;;;4986037;28;20497;-59
2022/08/22 04:04:42;;;;;;;6.07;2.00;;;15.80;99.90;;;;;;4987269;28;20058;-59
2022/08/22 04:07:34;;;;;;;5.00;2.22;;;15.70;99.90;;;;;;4985436;28;20066;-58
2022/08/22 04:10:34;;;;;;;8.32;1.95;;;15.80;99.90;;;;;;4978363;28;20117;-57
2022/08/22 04:13:28;;;;;;;9.13;2.17;;;15.80;99.90;;;;;;4981377;28;20133;-59
2022/08/22 04:16:01;;;;;;;8.27;2.15;;;15.70;99.90;;;;;;4987912;28;20138;-59
2022/08/22 04:18:53;;;;;;;6.50;2.10;;;15.70;99.90;;;;;;4970707;28;20051;-59
2022/08/22 04:21:26;;;;;;;6.40;2.20;;;15.70;99.90;;;;;;4987890;28;20064;-59
2022/08/22 04:24:32;;;;;;;6.47;2.00;;;15.60;99.90;;;;;;4987845;28;20054;-59
2022/08/22 04:27:19;;;;;;;6.90;1.90;;;15.40;99.90;;;;;;4971672;28;20058;-60
2022/08/22 04:29:57;;;;;;;7.13;2.50;;;15.30;99.90;;;;;;4946313;28;20038;-60
2022/08/22 04:32:28;;;;;;;11.10;2.58;;;15.30;99.90;;;;;;4991107;28;20104;-59
2022/08/22 04:34:58;;;;;;;8.05;2.20;;;15.20;99.90;;;;;;4947722;28;20070;-60
2022/08/22 04:37:34;;;;;;;7.38;2.33;;;15.30;99.90;;;;;;4991129;28;20433;-59
2022/08/22 04:40:27;;;;;;;7.50;2.10;;;15.20;99.90;;;;;;4991179;28;20050;-59
2022/08/22 04:43:08;;;;;;;9.13;2.00;;;15.20;99.90;;;;;;4973622;28;20053;-59
2022/08/22 04:45:42;;;;;;;7.15;1.83;;;15.30;99.90;;;;;;4987350;28;20080;-59
2022/08/22 04:48:18;;;;;;;9.40;2.97;;;15.30;99.90;;;;;;4990822;28;20046;-59
2022/08/22 04:50:50;;;;;;;9.15;2.05;;;15.30;99.90;;;;;;4974093;28;20077;-59
2022/08/22 04:53:47;;;;;;;6.72;2.63;;;15.30;99.90;;;;;;4990911;28;20050;-59
2022/08/22 04:56:50;;;;;;;10.68;2.78;;;15.30;99.90;;;;;;4975831;28;20117;-60
2022/08/22 04:59:17;;;;;;;7.07;2.30;;;15.30;99.90;;;;;;4981960;28;20104;-57
2022/08/22 05:01:48;;;;;;;7.55;2.63;;;15.30;99.90;;;;;;4990755;28;20046;-58
2022/08/22 05:04:28;;;;;;;7.55;2.30;;;15.40;99.90;;;;;;4957316;28;20046;-58
2022/08/22 05:07:13;;;;;;;8.32;2.60;;;15.40;99.90;;;;;;4973547;28;20081;-60
2022/08/22 05:09:43;;;;;;;10.15;3.30;;;15.30;99.90;;;;;;4981945;28;20046;-59
2022/08/22 05:12:14;;;;;;;17.13;3.58;;;15.30;99.90;;;;;;4973392;28;20540;-59
2022/08/22 05:15:00;;;;;;;5.88;2.75;;;15.30;99.90;;;;;;4973962;28;20449;-59
2022/08/22 05:17:28;;;;;;;10.73;2.63;;;15.30;99.90;;;;;;4973639;28;20463;-57
2022/08/22 05:19:57;;;;;;;10.57;2.42;;;15.20;99.90;;;;;;4981065;28;20043;-59
2022/08/22 05:22:28;;;;;;;9.05;2.08;;;15.20;99.90;;;;;;4973365;28;20310;-56
2022/08/22 05:25:00;;;;;;;7.72;2.03;;;15.10;99.90;;;;;;4972787;28;20501;-58
2022/08/22 05:27:33;;;;;;;7.13;2.45;;;15.00;99.90;;;;;;4990623;28;20349;-62
2022/08/22 05:30:07;;;;;;;4.18;1.80;;;15.00;99.90;;;;;;4990329;28;20104;-59
2022/08/22 05:32:50;;;;;;;14.98;2.45;;;15.00;99.90;;;;;;4977715;28;20148;-58
2022/08/22 05:35:18;;;;;;;8.18;2.30;;;15.00;99.90;;;;;;4990367;28;20078;-60
2022/08/22 05:37:48;;;;;;;8.02;2.40;;;15.00;99.90;;;;;;4972762;28;20469;-58
2022/08/22 05:40:25;;;;;;;14.55;3.45;;;15.10;99.90;;;;;;4972784;28;20073;-58
2022/08/22 05:42:52;;;;;;;8.38;2.25;;;15.20;99.90;;;;;;4979777;28;20147;-59
2022/08/22 05:45:19;;;;;;;9.65;2.78;;;15.20;99.90;;;;;;4972688;28;20069;-59
2022/08/22 05:48:19;;;;;;;11.77;2.88;;;15.20;99.90;;;;;;4957150;28;20093;-58
2022/08/22 05:51:17;;;;;;;14.32;2.58;;;15.30;99.90;;;;;;4974674;28;20116;-58
2022/08/22 05:53:46;;;;;;;7.82;2.08;;;15.30;99.90;;;;;;4972836;28;20046;-59
2022/08/22 05:56:20;;;;;;;13.75;4.72;;;15.40;99.90;;;;;;4972648;28;20093;-58
2022/08/22 05:59:01;;;;;;;12.43;2.30;;;15.50;99.90;;;;;;4972733;28;20085;-59
2022/08/22 06:01:58;;;;;;;9.85;2.70;;;15.50;99.90;;;;;;4981143;28;20081;-58
2022/08/22 06:04:48;;;;;;;8.82;2.60;;;15.60;99.90;;;;;;4972125;28;20132;-59
2022/08/22 06:07:34;;;;;;;6.22;1.92;;;15.60;99.90;;;;;;4972310;28;20047;-61
2022/08/22 06:10:20;;;;;;;21.55;3.25;;;15.60;99.90;;;;;;4989365;28;20058;-58
2022/08/22 06:13:21;;;;;;;13.60;4.10;;;15.70;99.90;;;;;;4641808;28;10000360;-59
2022/08/22 06:16:15;;;;;;;7.95;2.63;;;15.70;99.90;;;;;;4969284;28;20521;-58
2022/08/22 06:18:43;;;;;;;13.80;2.83;;;15.80;99.90;;;;;;4972455;28;20126;-58
2022/08/22 06:21:18;;;;;;;7.93;3.08;;;15.80;99.90;;;;;;4969144;28;20104;-60
2022/08/22 06:23:55;;;;;;;19.83;3.10;;;15.90;99.90;;;;;;4981858;28;20132;-59
2022/08/22 06:26:23;;;;;;;11.15;2.63;;;16.00;99.90;;;;;;4968805;28;20046;-60
2022/08/22 06:28:52;;;;;;;12.43;2.47;;;16.10;99.90;;;;;;4969355;28;20482;-59
2022/08/22 06:31:26;;;;;;;9.25;2.13;;;16.20;99.90;;;;;;4969599;28;20163;-60
2022/08/22 06:34:00;;;;;;;15.52;2.95;;;16.30;99.90;;;;;;4969283;28;20141;-59
2022/08/22 06:36:30;;;;;;;13.40;3.17;;;16.50;99.90;;;;;;4969350;28;20141;-57
2022/08/22 06:39:21;;;;;;;11.30;2.65;;;16.60;99.90;;;;;;4969950;28;20807;-60
2022/08/22 06:41:53;;;;;;;8.18;2.55;;;16.70;99.90;;;;;;4969181;28;20038;-60
2022/08/22 06:44:32;;;;;;;8.88;2.10;;;16.70;99.90;;;;;;4984789;28;20100;-60
2022/08/22 06:46:59;;;;;;;7.75;2.60;;;16.80;99.90;;;;;;4985653;28;20053;-59
2022/08/22 06:49:26;;;;;;;16.23;3.42;;;16.90;99.90;;;;;;4968333;28;20050;-59
2022/08/22 06:51:58;;;;;;;8.32;2.67;;;17.00;99.90;;;;;;4968900;28;20111;-59
2022/08/22 06:54:26;;;;;;;10.48;2.72;;;17.00;99.90;;;;;;4968762;28;20777;-62
2022/08/22 06:56:59;;;;;;;9.23;3.10;;;17.10;99.90;;;;;;4969017;28;20545;-59
2022/08/22 06:59:28;;;;;;;10.40;3.15;;;17.20;99.90;;;;;;4968813;28;20073;-59
2022/08/22 07:02:02;;;;;;;11.32;3.03;;;17.30;99.90;;;;;;4968550;28;20130;-58
2022/08/22 07:04:29;;;;;;;10.65;3.28;;;17.40;99.90;;;;;;4968447;28;20109;-59
2022/08/22 07:06:57;;;;;;;12.25;3.83;;;17.40;99.90;;;;;;4968450;28;20130;-59
2022/08/22 07:09:28;;;;;;;11.27;3.17;;;17.50;99.90;;;;;;4968572;28;20505;-58
2022/08/22 07:11:56;;;;;;;12.88;3.97;;;17.60;99.90;;;;;;4963863;28;20050;-58
2022/08/22 07:14:29;;;;;;;7.95;3.17;;;17.70;99.90;;;;;;4978962;28;20054;-58
2022/08/22 07:17:00;;;;;;;8.88;2.38;;;17.80;99.90;;;;;;4962238;28;20050;-58
2022/08/22 07:20:06;;;;;;;13.32;2.15;;;17.80;99.90;;;;;;4966620;28;20116;-59
2022/08/22 07:22:35;;;;;;;7.70;2.20;;;18.00;99.90;;;;;;4979604;28;20117;-57
2022/08/22 07:25:09;;;;;;;11.00;2.70;;;18.00;99.90;;;;;;4970478;28;20086;-60
2022/08/22 07:28:02;;;;;;;12.13;2.55;;;18.10;99.90;;;;;;4971812;28;20497;-60
2022/08/22 07:30:54;;;;;;;13.65;2.90;;;18.20;99.90;;;;;;4976644;28;20082;-59
2022/08/22 07:33:26;;;;;;;7.88;2.40;;;18.30;99.90;;;;;;4971657;28;20072;-58
2022/08/22 07:36:00;;;;;;;8.60;2.28;;;18.40;99.90;;;;;;4987793;28;20050;-59
2022/08/22 07:38:42;;;;;;;10.50;2.58;;;18.40;99.90;;;;;;4961080;28;20047;-60
2022/08/22 07:41:23;;;;;;;15.80;2.63;;;18.60;99.90;;;;;;4971434;28;20077;-60
2022/08/22 07:43:56;;;;;;;11.20;2.17;;;18.60;99.90;;;;;;4970595;28;20100;-60
2022/08/22 07:46:32;;;;;;;8.43;2.85;;;18.70;99.90;;;;;;4959859;28;20346;-60
2022/08/22 07:49:22;;;;;;;8.27;3.05;;;18.80;99.90;;;;;;4987932;28;20510;-59
2022/08/22 07:51:57;;;;;;;9.23;2.63;;;18.90;99.90;;;;;;4971311;28;20088;-60
2022/08/22 07:54:42;;;;;;;7.80;2.15;;;19.00;99.90;;;;;;4953996;28;20065;-60
2022/08/22 07:57:14;;;;;;;8.18;2.00;;;19.10;99.90;;;;;;4986696;28;20043;-59
2022/08/22 07:59:51;;;;;;;13.63;2.35;;;19.10;99.90;;;;;;4969915;28;20042;-58
2022/08/22 08:02:18;;;;;;;9.90;2.10;;;19.10;99.90;;;;;;4957552;28;20050;-61
2022/08/22 08:04:47;;;;;;;9.85;2.40;;;19.20;99.90;;;;;;4971501;28;20073;-59
2022/08/22 08:07:15;;;;;;;9.68;2.38;;;19.30;99.90;;;;;;4986612;28;20065;-59
2022/08/22 08:09:55;;;;;;;7.80;1.75;;;19.30;99.90;;;;;;4972457;28;20057;-60
2022/08/22 08:12:30;;;;;;;6.63;1.52;;;19.40;99.90;;;;;;4952969;28;20101;-59
2022/08/22 08:14:59;;;;;;;12.10;3.08;;;19.40;99.90;;;;;;4972237;28;20077;-60
2022/08/22 08:17:27;;;;;;;9.43;2.35;;;19.50;99.90;;;;;;4971823;28;20043;-60
2022/08/22 08:19:58;;;;;;;10.60;2.08;;;19.50;99.90;;;;;;4973074;28;20096;-59
2022/08/22 08:22:25;;;;;;;9.45;2.17;;;19.60;99.90;;;;;;4979165;28;20043;-59
2022/08/22 08:24:55;;;;;;;6.63;1.90;;;19.60;99.90;;;;;;4972425;28;20497;-60
2022/08/22 08:30:15;;;;;;;10.30;2.42;;;19.70;99.90;;;;;;4975046;28;20046;-59
2022/08/22 08:32:44;;;;;;;8.03;2.33;;;19.80;99.90;;;;;;4989838;28;20054;-58
2022/08/22 08:35:26;;;;;;;11.13;2.28;;;19.80;99.90;;;;;;4973416;28;20320;-58
2022/08/22 08:38:07;;;;;;;10.23;2.35;;;19.80;99.90;;;;;;4973853;28;20141;-58
2022/08/22 08:41:06;;;;;;;8.38;2.10;;;19.90;99.90;;;;;;4973379;28;20461;-58
2022/08/22 08:43:41;;;;;;;13.35;2.22;;;20.00;99.90;;;;;;4977563;28;20108;-58
2022/08/22 08:46:46;;;;;;;10.40;1.58;;;20.10;99.90;;;;;;4970844;28;20038;-61
2022/08/22 08:49:34;;;;;;;8.25;2.53;;;20.10;99.90;;;;;;4970250;28;20043;-60
2022/08/22 08:52:20;;;;;;;6.55;2.15;;;20.20;99.90;;;;;;4982465;28;20055;-60
2022/08/22 08:55:10;;;;;;;8.13;2.35;;;20.10;99.90;;;;;;4979686;28;20069;-58
2022/08/22 08:58:03;;;;;;;5.95;1.80;;;20.10;99.90;;;;;;4976875;28;20050;-58
2022/08/22 09:01:05;;;;;;;6.10;1.73;;;20.20;99.90;;;;;;4979010;28;20643;-59
2022/08/22 09:04:08;;;;;;;14.50;3.17;;;20.20;99.90;;;;;;4989523;28;20129;-59
2022/08/22 09:07:07;;;;;;;12.38;2.53;;;20.30;99.90;;;;;;4974053;28;20045;-59
2022/08/22 09:09:52;;;;;;;14.23;2.60;;;20.50;99.90;;;;;;4953684;28;20062;-59
2022/08/22 09:12:47;;;;;;;7.95;2.03;;;20.70;99.90;;;;;;4982542;28;20054;-58
2022/08/22 09:15:53;;;;;;;17.67;2.42;;;20.90;99.90;;;;;;4955629;28;20077;-59
2022/08/22 09:18:42;;;;;;;7.47;2.17;;;20.80;99.90;;;;;;4986188;28;20054;-58
2022/08/22 09:21:09;;;;;;;7.25;2.00;;;20.90;99.90;;;;;;4983726;28;20046;-58
2022/08/22 09:24:17;;;;;;;10.65;3.50;;;20.90;99.90;;;;;;4644237;28;10000464;-59
2022/08/22 09:27:00;;;;;;;7.13;1.98;;;20.90;99.70;;;;;;4967480;28;20065;-59
2022/08/22 09:29:34;;;;;;;8.10;1.73;;;21.00;99.20;;;;;;4975202;28;20086;-62
2022/08/22 09:32:41;;;;;;;11.53;1.80;;;21.00;98.90;;;;;;4990257;28;20061;-59
2022/08/22 09:35:17;;;;;;;8.15;2.20;;;21.20;98.70;;;;;;4983507;28;20050;-59
2022/08/22 09:37:52;;;;;;;7.47;2.03;;;21.30;99.40;;;;;;4981861;28;20124;-58
2022/08/22 09:40:38;;;;;;;9.52;1.92;;;21.40;98.60;;;;;;4972639;28;20545;-59
2022/08/22 09:43:07;;;;;;;6.55;2.08;;;21.60;98.50;;;;;;4980101;28;20085;-59
2022/08/22 09:45:39;;;;;;;7.57;2.00;;;22.00;98.60;;;;;;4945266;28;20053;-60
2022/08/22 09:48:15;;;;;;;11.63;2.75;;;22.20;97.20;;;;;;4961615;28;20042;-59
2022/08/22 09:51:07;;;;;;;5.40;1.40;;;22.30;96.90;;;;;;4962929;28;20496;-58
2022/08/22 09:54:38;;;;;;;8.95;1.90;;;22.40;95.50;;;;;;4971422;28;20046;-58
2022/08/22 09:57:39;;;;;;;6.70;2.38;;;22.80;94.20;;;;;;4969735;28;20060;-60
2022/08/22 10:00:18;;;;;;;7.57;1.60;;;22.70;95.40;;;;;;4945421;28;20541;-59
2022/08/22 10:03:17;;;;;;;4.35;1.63;;;22.50;95.90;;;;;;4980479;28;20054;-59
2022/08/22 10:05:58;;;;;;;5.43;1.60;;;22.30;94.80;;;;;;4981326;28;20105;-59
2022/08/22 10:08:54;;;;;;;4.45;1.55;;;22.30;96.60;;;;;;4961768;28;20519;-59
2022/08/22 10:11:32;;;;;;;7.68;2.50;;;22.50;95.00;;;;;;4955049;28;20046;-60
2022/08/22 10:14:12;;;;;;;7.25;1.23;;;22.80;96.40;;;;;;4963132;28;20050;-59
2022/08/22 10:17:00;;;;;;;9.55;2.58;;;23.10;95.80;;;;;;4945381;28;20086;-61
2022/08/22 10:19:30;;;;;;;8.85;1.58;;;23.30;93.50;;;;;;4986506;28;20517;-60
2022/08/22 10:22:19;;;;;;;8.43;1.20;;;23.20;94.80;;;;;;4986544;28;20489;-60
2022/08/22 10:25:04;;;;;;;5.85;1.33;;;23.10;94.10;;;;;;4976316;28;20553;-59
2022/08/22 10:27:52;;;;;;;5.85;1.08;;;23.00;94.80;;;;;;4981610;28;20054;-60
2022/08/22 10:30:21;;;;;;;12.20;1.60;;;23.00;95.20;;;;;;4983178;28;20053;-59
2022/08/22 10:32:56;;;;;;;4.70;1.67;;;23.00;96.10;;;;;;4946188;28;20552;-60
2022/08/22 10:35:38;;;;;;;4.47;1.10;;;22.90;95.80;;;;;;4980478;28;20042;-59
2022/08/22 10:38:10;;;;;;;3.25;0.80;;;22.80;96.10;;;;;;4968694;28;20108;-59
2022/08/22 10:41:03;;;;;;;6.00;1.98;;;22.80;96.50;;;;;;4960621;28;20498;-59
2022/08/22 10:43:51;;;;;;;4.82;1.35;;;22.90;95.70;;;;;;4934688;28;20546;-59
2022/08/22 10:46:36;;;;;;;4.60;1.17;;;23.10;96.60;;;;;;4970176;28;20054;-60
2022/08/22 10:49:28;;;;;;;2.55;1.33;;;23.00;96.60;;;;;;4968827;28;20115;-60
2022/08/22 10:52:03;;;;;;;2.92;1.20;;;23.00;96.50;;;;;;4983944;28;20050;-59
2022/08/22 10:54:57;;;;;;;4.00;1.00;;;23.00;96.70;;;;;;4964724;28;20129;-59
2022/08/22 10:58:00;;;;;;;7.85;1.42;;;23.00;96.80;;;;;;4981181;28;20062;-61
2022/08/22 11:00:47;;;;;;;3.85;1.00;;;23.00;96.80;;;;;;4952557;28;20043;-60
2022/08/22 11:03:34;;;;;;;12.70;1.08;;;23.10;96.70;;;;;;4962529;28;20061;-59
2022/08/22 11:06:07;;;;;;;3.90;0.85;;;23.10;97.00;;;;;;4982860;28;20576;-58
2022/08/22 11:08:50;;;;;;;11.20;1.23;;;23.20;97.10;;;;;;4961588;28;20043;-60
2022/08/22 11:11:37;;;;;;;7.90;1.13;;;23.20;97.00;;;;;;4981859;28;20145;-60
2022/08/22 11:14:29;;;;;;;12.18;2.38;;;23.30;96.10;;;;;;4963647;28;20445;-59
2022/08/22 11:17:16;;;;;;;5.75;1.00;;;23.30;96.00;;;;;;4968324;28;20085;-60
2022/08/22 11:20:00;;;;;;;2.78;1.20;;;23.30;96.70;;;;;;4965196;28;20130;-60
2022/08/22 11:22:46;;;;;;;4.07;0.85;;;23.30;96.50;;;;;;4983844;28;20467;-59
2022/08/22 11:25:20;;;;;;;5.20;1.30;;;23.30;96.60;;;;;;4981261;28;20082;-59
2022/08/22 11:28:26;;;;;;;8.15;1.67;;;23.40;96.40;;;;;;4983436;28;20527;-60
2022/08/22 11:31:18;;;;;;;3.45;0.70;;;23.20;95.70;;;;;;4979503;28;20070;-60
2022/08/22 11:33:49;;;;;;;6.70;1.23;;;23.10;95.80;;;;;;4985535;28;20058;-60
2022/08/22 11:36:39;;;;;;;5.70;1.13;;;22.90;96.60;;;;;;4988011;28;20082;-60
2022/08/22 11:39:29;;;;;;;9.30;2.15;;;22.80;96.90;;;;;;4972555;28;20050;-59
2022/08/22 11:42:04;;;;;;;18.00;2.33;;;22.70;97.20;;;;;;4976126;28;20238;-60
2022/08/22 11:44:53;;;;;;;5.47;1.60;;;22.80;97.60;;;;;;4970482;28;20063;-60
2022/08/22 11:47:27;;;;;;;10.00;2.08;;;22.80;98.10;;;;;;4985802;28;20097;-59
2022/08/22 11:49:59;;;;;;;10.38;1.85;;;22.80;97.90;;;;;;4972197;28;20140;-60
2022/08/22 11:52:33;;;;;;;4.22;1.17;;;22.70;98.10;;;;;;4985165;28;20058;-60
2022/08/22 11:55:20;;;;;;;6.95;1.00;;;22.60;98.40;;;;;;4989758;28;20336;-60
2022/08/22 11:57:53;;;;;;;3.58;1.13;;;22.40;99.30;;;;;;4985059;28;20050;-60
2022/08/22 12:00:42;;;;;;;4.25;1.42;;;22.20;99.60;;;;;;4989436;28;20046;-60
2022/08/22 12:03:30;;;;;;;5.95;1.20;;;22.10;99.90;;;;;;4987702;28;20053;-60
2022/08/22 12:06:33;;;;;;;2.67;1.23;;;22.10;99.90;;;;;;4981875;28;20078;-59
2022/08/22 12:09:14;;;;;;;6.18;1.73;;;22.00;99.90;;;;;;4974886;28;20042;-60
2022/08/22 12:11:53;;;;;;;6.10;1.85;;;22.10;99.90;;;;;;4972352;28;20096;-57
2022/08/22 12:14:54;;;;;;;12.13;1.73;;;22.10;99.90;;;;;;4972137;28;20066;-59
2022/08/22 12:17:30;;;;;;;4.85;1.15;;;22.20;99.90;;;;;;4982667;28;20093;-60
2022/08/22 12:20:38;;;;;;;4.85;1.35;;;22.20;99.90;;;;;;4988891;28;20046;-64
2022/08/22 12:23:29;;;;;;;12.65;2.35;;;22.30;99.90;;;;;;4988465;28;20058;-60
2022/08/22 12:26:39;;;;;;;6.85;2.22;;;22.40;99.90;;;;;;4988889;28;20061;-60
2022/08/22 12:29:18;;;;;;;8.07;1.63;;;22.40;99.90;;;;;;4983906;28;20181;-60
2022/08/22 12:32:32;;;;;;;5.68;1.30;;;22.40;99.90;;;;;;4988690;28;20046;-59
2022/08/22 12:35:11;;;;;;;19.92;3.22;;;22.50;99.90;;;;;;4988242;28;20148;-60
2022/08/22 12:37:49;;;;;;;29.50;3.42;;;22.40;99.90;;;;;;4971233;28;20310;-59
2022/08/22 12:40:53;;;;;;;14.65;2.05;;;22.30;99.90;;;;;;4974153;28;20050;-60
2022/08/22 12:43:33;;;;;;;7.65;1.27;;;22.40;99.90;;;;;;4965928;28;20050;-59
2022/08/22 12:46:32;;;;;;;8.40;1.10;;;22.60;99.90;;;;;;4975317;28;20051;-60
2022/08/22 12:49:22;;;;;;;7.82;1.40;;;22.60;99.90;;;;;;4987848;28;20085;-61
2022/08/22 12:51:54;;;;;;;9.40;1.73;;;22.70;99.80;;;;;;4971046;28;20078;-59
2022/08/22 12:54:53;;;;;;;6.60;1.30;;;22.70;99.90;;;;;;4986523;28;20101;-59
2022/08/22 12:57:47;;;;;;;17.08;3.30;;;22.90;99.90;;;;;;4970820;28;20141;-59
2022/08/22 13:00:29;;;;;;;4.70;1.60;;;23.00;99.50;;;;;;4978759;28;20572;-59
2022/08/22 13:02:58;;;;;;;14.35;1.83;;;23.20;99.50;;;;;;4987052;28;20129;-59
2022/08/22 13:05:27;;;;;;;8.20;1.52;;;23.40;99.10;;;;;;4975595;28;20054;-59
2022/08/22 13:08:05;;;;;;;11.18;1.60;;;23.60;99.00;;;;;;4968817;28;20166;-60
2022/08/22 13:10:57;;;;;;;6.50;1.33;;;23.80;97.60;;;;;;4959952;28;20060;-60
2022/08/22 13:13:30;;;;;;;3.97;1.17;;;23.90;95.90;;;;;;4969060;28;20502;-59
2022/08/22 13:16:13;;;;;;;2.47;0.88;;;23.80;96.50;;;;;;4970563;28;20046;-60
2022/08/22 13:18:48;;;;;;;2.65;1.05;;;23.70;96.20;;;;;;4970245;28;20054;-59
2022/08/22 13:21:25;;;;;;;5.50;1.65;;;23.80;96.60;;;;;;4987699;28;20054;-60
2022/08/22 13:24:02;;;;;;;6.88;1.58;;;23.70;96.60;;;;;;4970985;28;20042;-60
2022/08/22 13:26:30;;;;;;;3.75;1.00;;;23.90;97.10;;;;;;4970031;28;20140;-61
2022/08/22 13:29:20;;;;;;;2.53;0.95;;;23.80;96.40;;;;;;4967083;28;20495;-60
2022/08/22 13:31:54;;;;;;;5.80;1.73;;;23.50;96.30;;;;;;4986209;28;20398;-63
2022/08/22 13:34:44;;;;;;;3.47;0.98;;;23.30;97.10;;;;;;4970711;28;20050;-60
2022/08/22 13:37:23;;;;;;;8.02;1.88;;;23.20;97.50;;;;;;4946434;28;20066;-62
2022/08/22 13:39:53;;;;;;;5.82;1.38;;;23.10;97.80;;;;;;4968921;28;20042;-60
2022/08/22 13:42:22;;;;;;;4.30;1.00;;;23.10;97.90;;;;;;4972504;28;20051;-60
2022/08/22 13:44:58;;;;;;;3.13;0.93;;;23.00;98.00;;;;;;4971763;28;20540;-60
2022/08/22 13:47:29;;;;;;;4.07;1.35;;;23.00;98.20;;;;;;4958629;28;20502;-60
2022/08/22 13:50:09;;;;;;;8.95;1.63;;;23.10;98.40;;;;;;4987264;28;20104;-61
2022/08/22 13:52:45;;;;;;;3.10;1.20;;;23.20;98.10;;;;;;4962852;28;20042;-60
2022/08/22 13:55:29;;;;;;;3.75;1.02;;;23.20;97.80;;;;;;4984336;28;20114;-60
2022/08/22 13:58:28;;;;;;;4.43;1.10;;;23.10;98.00;;;;;;4969383;28;20046;-59
2022/08/22 14:01:33;;;;;;;4.18;1.08;;;23.00;98.60;;;;;;4981099;28;20452;-60
2022/08/22 14:04:18;;;;;;;6.15;1.60;;;23.00;98.70;;;;;;4986991;28;20512;-60